createdAt,value
2023-01-23T00:01:36.479Z,7.03
2023-01-23T00:04:05.957Z,9.38
2023-01-23T00:06:35.399Z,7.43
2023-01-23T00:09:03.519Z,6.78
2023-01-23T00:11:32.122Z,9.32
2023-01-23T00:14:01.682Z,7.80
2023-01-23T00:16:31.869Z,8.45
2023-01-23T00:19:00.662Z,8.52
2023-01-23T00:21:30.506Z,7.10
2023-01-23T00:24:02.489Z,7.03
2023-01-23T00:26:33.192Z,7.87
2023-01-23T00:29:01.546Z,8.00
2023-01-23T00:31:33.840Z,9.32
2023-01-23T00:34:04.235Z,9.57
2023-01-23T00:36:34.356Z,10.30
2023-01-23T00:39:07.325Z,7.87
2023-01-23T00:41:35.529Z,11.98
2023-01-23T00:44:05.717Z,8.98
2023-01-23T00:46:34.918Z,7.10
2023-01-23T00:49:04.355Z,6.40
2023-01-23T00:51:32.720Z,9.75
2023-01-23T00:54:01.203Z,6.80
2023-01-23T00:56:31.009Z,7.28
2023-01-23T00:58:59.115Z,8.77
2023-01-23T01:01:28.987Z,11.82
2023-01-23T01:03:57.421Z,9.00
2023-01-23T01:06:25.791Z,6.82
2023-01-23T01:08:53.872Z,8.48
2023-01-23T01:11:24.107Z,11.73
2023-01-23T01:13:54.115Z,9.35
2023-01-23T01:16:24.348Z,9.98
2023-01-23T01:18:52.605Z,9.20
2023-01-23T01:21:20.832Z,9.88
2023-01-23T01:23:49.098Z,8.27
2023-01-23T01:26:18.402Z,8.75
2023-01-23T01:28:46.448Z,10.45
2023-01-23T01:31:17.822Z,8.77
2023-01-23T01:33:45.979Z,9.93
2023-01-23T01:36:16.917Z,9.27
2023-01-23T01:38:47.989Z,10.18
2023-01-23T01:41:17.486Z,8.25
2023-01-23T01:43:46.609Z,11.93
2023-01-23T01:46:22.186Z,10.40
2023-01-23T01:49:04.125Z,8.65
2023-01-23T01:51:34.648Z,10.70
2023-01-23T01:54:10.540Z,11.52
2023-01-23T01:56:42.202Z,8.55
2023-01-23T01:59:12.231Z,9.20
2023-01-23T02:01:44.233Z,8.82
2023-01-23T02:04:12.837Z,11.50
2023-01-23T02:06:41.828Z,9.23
2023-01-23T02:09:15.973Z,10.18
2023-01-23T02:11:45.274Z,9.07
2023-01-23T02:14:14.577Z,8.23
2023-01-23T02:16:50.447Z,8.27
2023-01-23T02:19:34.607Z,11.20
2023-01-23T02:22:11.859Z,8.55
2023-01-23T02:24:45.073Z,11.93
2023-01-23T02:27:14.472Z,9.90
2023-01-23T02:29:44.378Z,11.55
2023-01-23T02:32:12.850Z,9.00
2023-01-23T02:34:42.567Z,11.90
2023-01-23T02:37:11.152Z,10.52
2023-01-23T02:39:39.646Z,9.07
2023-01-23T02:42:09.432Z,11.57
2023-01-23T02:44:39.613Z,10.52
2023-01-23T02:47:12.348Z,8.25
2023-01-23T02:49:42.854Z,10.23
2023-01-23T02:52:11.282Z,7.60
2023-01-23T02:54:40.309Z,10.00
2023-01-23T02:57:09.100Z,11.93
2023-01-23T02:59:54.802Z,10.00
2023-01-23T03:02:26.520Z,12.95
2023-01-23T03:04:54.836Z,12.80
2023-01-23T03:07:23.149Z,8.20
2023-01-23T03:09:51.180Z,12.40
2023-01-23T03:12:19.238Z,11.18
2023-01-23T03:14:48.547Z,15.57
2023-01-23T03:17:16.608Z,11.52
2023-01-23T03:19:46.118Z,11.18
2023-01-23T03:22:16.056Z,13.50
2023-01-23T03:24:44.166Z,10.57
2023-01-23T03:27:12.309Z,13.38
2023-01-23T03:29:58.307Z,13.68
2023-01-23T03:32:26.813Z,9.98
2023-01-23T03:34:57.453Z,14.32
2023-01-23T03:37:25.608Z,14.38
2023-01-23T03:40:12.728Z,12.27
2023-01-23T03:42:41.321Z,9.98
2023-01-23T03:45:10.904Z,13.30
2023-01-23T03:47:39.069Z,12.43
2023-01-23T03:50:10.626Z,16.67
2023-01-23T03:52:39.008Z,13.05
2023-01-23T03:55:07.991Z,9.63
2023-01-23T03:57:36.956Z,10.57
2023-01-23T04:00:07.068Z,10.13
2023-01-23T04:02:41.828Z,15.55
2023-01-23T04:05:12.536Z,12.40
2023-01-23T04:07:40.925Z,11.05
2023-01-23T04:10:13.025Z,11.85
2023-01-23T04:12:43.445Z,11.35
2023-01-23T04:15:13.371Z,9.43
2023-01-23T04:17:42.491Z,14.25
2023-01-23T04:20:13.495Z,14.43
2023-01-23T04:22:42.676Z,11.80
2023-01-23T04:25:11.567Z,12.13
2023-01-23T04:27:39.725Z,14.00
2023-01-23T04:30:09.764Z,12.48
2023-01-23T04:32:38.348Z,9.40
2023-01-23T04:35:07.899Z,13.50
2023-01-23T04:37:40.540Z,14.40
2023-01-23T04:40:11.491Z,12.37
2023-01-23T04:42:41.295Z,10.48
2023-01-23T04:45:10.838Z,10.18
2023-01-23T04:47:47.698Z,13.35
2023-01-23T04:50:16.522Z,11.27
2023-01-23T04:52:46.634Z,12.15
2023-01-23T04:55:14.940Z,9.73
2023-01-23T04:57:43.861Z,11.77
2023-01-23T05:00:14.483Z,9.25
2023-01-23T05:02:42.579Z,20.12
2023-01-23T05:05:10.962Z,12.45
2023-01-23T05:07:39.372Z,12.02
2023-01-23T05:10:10.960Z,13.88
2023-01-23T05:12:39.412Z,11.75
2023-01-23T05:15:08.859Z,13.73
2023-01-23T05:17:37.603Z,17.65
2023-01-23T05:20:07.737Z,13.40
2023-01-23T05:22:37.543Z,14.95
2023-01-23T05:25:06.940Z,12.15
2023-01-23T05:27:36.482Z,14.45
2023-01-23T05:30:04.889Z,12.90
2023-01-23T05:32:33.775Z,11.55
2023-01-23T05:35:03.474Z,14.85
2023-01-23T05:37:31.778Z,14.77
2023-01-23T05:40:00.803Z,14.50
2023-01-23T05:42:29.419Z,17.17
2023-01-23T05:44:59.637Z,12.07
2023-01-23T05:47:28.459Z,16.73
2023-01-23T05:49:56.825Z,12.20
2023-01-23T05:52:25.717Z,14.57
2023-01-23T05:54:54.154Z,11.45
2023-01-23T05:57:22.696Z,13.45
2023-01-23T05:59:52.738Z,15.05
2023-01-23T06:02:22.921Z,15.88
2023-01-23T06:04:55.725Z,13.98
2023-01-23T06:07:24.413Z,20.35
2023-01-23T06:09:52.932Z,14.65
2023-01-23T06:12:21.220Z,15.25
2023-01-23T06:14:49.405Z,16.17
2023-01-23T06:17:17.731Z,13.90
2023-01-23T06:19:48.165Z,15.63
2023-01-23T06:22:16.891Z,13.23
2023-01-23T06:24:47.706Z,16.55
2023-01-23T06:27:15.915Z,11.20
2023-01-23T06:29:44.061Z,13.02
2023-01-23T06:32:12.260Z,15.20
2023-01-23T06:34:40.841Z,13.88
2023-01-23T06:37:10.739Z,13.43
2023-01-23T06:39:41.338Z,13.27
2023-01-23T06:42:10.767Z,12.15
2023-01-23T06:44:39.168Z,17.55
2023-01-23T06:47:07.391Z,14.48
2023-01-23T06:49:35.723Z,13.40
2023-01-23T06:52:05.211Z,15.13
2023-01-23T06:54:35.978Z,13.18
2023-01-23T06:57:05.585Z,12.45
2023-01-23T06:59:33.817Z,13.02
2023-01-23T07:02:02.797Z,12.85
2023-01-23T07:04:33.515Z,12.52
2023-01-23T07:07:01.589Z,13.25
2023-01-23T07:09:30.619Z,13.23
2023-01-23T07:12:00.862Z,13.65
2023-01-23T07:14:29.519Z,17.12
2023-01-23T07:16:57.928Z,13.60
2023-01-23T07:19:26.862Z,13.02
2023-01-23T07:21:55.277Z,10.57
2023-01-23T07:24:23.273Z,17.42
2023-01-23T07:26:51.507Z,16.85
2023-01-23T07:29:20.920Z,14.85
2023-01-23T07:31:49.135Z,11.95
2023-01-23T07:34:17.425Z,16.95
2023-01-23T07:36:45.482Z,14.38
2023-01-23T07:39:13.576Z,15.18
2023-01-23T07:41:43.056Z,14.27
2023-01-23T07:44:17.804Z,13.20
2023-01-23T07:46:48.915Z,12.50
2023-01-23T07:49:17.029Z,14.48
2023-01-23T07:51:45.304Z,14.38
2023-01-23T07:54:13.393Z,16.90
2023-01-23T07:56:41.479Z,10.77
2023-01-23T07:59:09.994Z,12.82
2023-01-23T08:01:37.954Z,12.63
2023-01-23T08:04:07.545Z,14.30
2023-01-23T08:06:36.573Z,12.27
2023-01-23T08:09:04.762Z,11.73
2023-01-23T08:11:34.386Z,14.25
2023-01-23T08:14:02.782Z,15.80
2023-01-23T08:16:30.908Z,15.10
2023-01-23T08:18:59.358Z,10.95
2023-01-23T08:21:28.764Z,13.02
2023-01-23T08:23:56.742Z,12.32
2023-01-23T08:26:25.022Z,14.10
2023-01-23T08:28:53.116Z,14.00
2023-01-23T08:31:21.352Z,13.77
2023-01-23T08:33:49.555Z,18.20
2023-01-23T08:36:17.590Z,15.10
2023-01-23T08:38:46.903Z,12.82
2023-01-23T08:41:15.316Z,13.70
2023-01-23T08:43:43.436Z,14.48
2023-01-23T08:46:11.877Z,13.55
2023-01-23T08:48:40.499Z,15.13
2023-01-23T08:51:09.992Z,13.48
2023-01-23T08:53:38.266Z,14.95
2023-01-23T08:56:09.708Z,15.30
2023-01-23T08:58:37.800Z,12.85
2023-01-23T09:01:06.283Z,14.75
2023-01-23T09:03:34.685Z,13.27
2023-01-23T09:06:02.970Z,16.27
2023-01-23T09:08:31.334Z,18.92
2023-01-23T09:11:02.093Z,18.27
2023-01-23T09:13:31.989Z,16.83
2023-01-23T09:16:00.190Z,18.85
2023-01-23T09:18:28.379Z,16.05
2023-01-23T09:20:56.973Z,14.27
2023-01-23T09:23:25.752Z,15.98
2023-01-23T09:25:53.706Z,15.82
2023-01-23T09:28:21.666Z,12.00
2023-01-23T09:30:51.414Z,16.50
2023-01-23T09:33:24.698Z,15.88
2023-01-23T09:35:53.069Z,18.73
2023-01-23T09:38:21.193Z,19.90
2023-01-23T09:40:52.035Z,17.35
2023-01-23T09:43:25.403Z,15.82
2023-01-23T09:46:04.242Z,14.90
2023-01-23T09:48:39.951Z,17.12
2023-01-23T09:51:18.838Z,14.23
2023-01-23T09:53:47.468Z,16.58
2023-01-23T09:56:28.741Z,14.80
2023-01-23T09:59:04.600Z,16.20
2023-01-23T10:01:34.032Z,15.80
2023-01-23T10:04:03.321Z,16.05
2023-01-23T10:06:34.574Z,21.30
2023-01-23T10:09:25.797Z,15.00
2023-01-23T10:12:02.756Z,15.75
2023-01-23T10:14:52.126Z,14.80
2023-01-23T10:17:28.486Z,18.80
2023-01-23T10:20:15.729Z,18.23
2023-01-23T10:22:52.305Z,20.37
2023-01-23T10:25:23.643Z,12.30
2023-01-23T10:27:54.281Z,19.48
2023-01-23T10:30:27.736Z,17.77
2023-01-23T10:33:00.857Z,18.05
2023-01-23T10:35:36.660Z,17.45
2023-01-23T10:38:13.184Z,14.95
2023-01-23T10:41:00.093Z,14.75
2023-01-23T10:43:28.347Z,18.05
2023-01-23T10:45:56.592Z,14.15
2023-01-23T10:48:39.469Z,17.00
2023-01-23T10:51:26.999Z,14.57
2023-01-23T10:54:06.178Z,15.27
2023-01-23T10:56:37.649Z,14.75
2023-01-23T10:59:08.791Z,19.23
2023-01-23T11:01:40.315Z,13.77
2023-01-23T11:04:18.387Z,16.73
2023-01-23T11:07:02.957Z,19.00
2023-01-23T11:09:32.104Z,14.82
2023-01-23T11:12:01.802Z,18.40
2023-01-23T11:14:30.239Z,17.70
2023-01-23T11:17:14.122Z,16.60
2023-01-23T11:19:46.442Z,18.23
2023-01-23T11:22:40.919Z,15.48
2023-01-23T11:25:29.269Z,19.25
2023-01-23T11:27:59.384Z,18.23
2023-01-23T11:30:46.187Z,17.27
2023-01-23T11:33:19.884Z,19.08
2023-01-23T11:35:59.841Z,16.35
2023-01-23T11:38:32.400Z,16.90
2023-01-23T11:41:12.996Z,16.23
2023-01-23T11:43:42.232Z,16.02
2023-01-23T11:46:35.222Z,20.27
2023-01-23T11:49:17.206Z,20.55
2023-01-23T11:51:53.556Z,17.55
2023-01-23T11:55:04.544Z,18.77
2023-01-23T11:57:41.518Z,17.30
2023-01-23T12:00:25.642Z,18.85
2023-01-23T12:03:24.445Z,21.77
2023-01-23T12:06:20.029Z,22.00
2023-01-23T12:09:00.191Z,20.60
2023-01-23T12:11:37.804Z,20.85
2023-01-23T12:14:15.911Z,22.35
2023-01-23T12:17:08.802Z,18.83
2023-01-23T12:19:56.296Z,16.75
2023-01-23T12:22:32.671Z,14.55
2023-01-23T12:25:15.897Z,21.75
2023-01-23T12:27:46.033Z,18.33
2023-01-23T12:30:46.879Z,21.42
2023-01-23T12:33:33.380Z,16.20
2023-01-23T12:36:16.930Z,16.35
2023-01-23T12:38:52.860Z,16.23
2023-01-23T12:41:36.335Z,24.27
2023-01-23T12:44:12.776Z,17.33
2023-01-23T12:46:47.118Z,21.40
2023-01-23T12:49:26.949Z,20.98
2023-01-23T12:52:01.246Z,22.35
2023-01-23T12:54:38.370Z,23.35
2023-01-23T12:57:10.484Z,20.58
2023-01-23T12:59:57.448Z,21.10
2023-01-23T13:02:34.279Z,20.98
2023-01-23T13:05:13.987Z,19.45
2023-01-23T13:07:52.054Z,20.85
2023-01-23T13:10:48.213Z,23.98
2023-01-23T13:13:19.613Z,23.90
2023-01-23T13:16:04.476Z,23.98
2023-01-23T13:18:52.836Z,26.12
2023-01-23T13:21:38.473Z,26.73
2023-01-23T13:24:49.351Z,23.05
2023-01-23T13:27:48.123Z,20.48
2023-01-23T13:30:43.014Z,25.98
2023-01-23T13:34:06.722Z,24.27
2023-01-23T13:36:38.924Z,18.98
2023-01-23T13:39:27.166Z,18.90
2023-01-23T13:42:45.661Z,22.50
2023-01-23T13:45:31.496Z,18.98
2023-01-23T14:25:03.447Z,19.83
2023-01-23T14:27:51.314Z,15.60
2023-01-23T14:30:26.517Z,20.62
2023-01-23T14:32:56.845Z,20.00
2023-01-23T14:35:27.100Z,20.05
2023-01-23T14:37:58.174Z,24.33
2023-01-23T14:40:33.252Z,25.27
2023-01-23T14:43:07.861Z,23.95
2023-01-23T14:45:37.794Z,25.90
2023-01-23T14:48:15.138Z,22.67
2023-01-23T14:50:43.639Z,24.98
2023-01-23T14:53:17.259Z,19.77
2023-01-23T14:55:49.618Z,20.67
2023-01-23T14:58:23.904Z,16.27
2023-01-23T15:00:54.431Z,21.48
2023-01-23T15:03:38.654Z,19.95
2023-01-23T15:06:10.823Z,17.52
2023-01-23T15:08:39.747Z,19.62
2023-01-23T15:11:12.010Z,17.92
2023-01-23T15:13:51.129Z,20.90
2023-01-23T15:16:21.867Z,22.87
2023-01-23T15:18:59.573Z,23.52
2023-01-23T15:21:31.145Z,19.00
2023-01-23T15:24:16.357Z,17.37
2023-01-23T15:26:45.459Z,21.33
2023-01-23T15:29:19.767Z,18.67
2023-01-23T15:31:51.030Z,20.83
2023-01-23T15:34:24.741Z,14.75
2023-01-23T15:36:56.499Z,18.70
2023-01-23T15:39:27.975Z,19.50
2023-01-23T15:41:58.733Z,19.65
2023-01-23T15:44:29.857Z,22.27
2023-01-23T15:47:01.004Z,19.08
2023-01-23T15:49:31.360Z,18.12
2023-01-23T15:52:02.284Z,18.37
2023-01-23T15:54:34.566Z,19.27
2023-01-23T15:57:08.006Z,15.02
2023-01-23T15:59:37.878Z,18.73
2023-01-23T16:02:29.218Z,15.32
2023-01-23T16:04:56.289Z,15.80
2023-01-23T16:07:26.616Z,19.87
2023-01-23T16:09:56.635Z,16.92
2023-01-23T16:12:29.352Z,17.37
2023-01-23T16:14:58.456Z,15.55
2023-01-23T16:17:26.530Z,19.37
2023-01-23T16:19:55.953Z,17.70
2023-01-23T16:22:29.097Z,16.70
2023-01-23T16:24:58.261Z,17.37
2023-01-23T16:27:27.743Z,17.52
2023-01-23T16:29:56.866Z,22.48
2023-01-23T16:32:25.159Z,19.20
2023-01-23T16:34:53.641Z,16.95
2023-01-23T16:37:23.051Z,19.12
2023-01-23T16:39:51.145Z,20.77
2023-01-23T16:42:22.878Z,20.30
2023-01-23T16:44:51.838Z,19.67
2023-01-23T16:47:20.683Z,18.35
2023-01-23T16:49:54.059Z,19.67
2023-01-23T16:52:27.021Z,17.23
2023-01-23T16:54:55.946Z,17.10
2023-01-23T16:57:25.445Z,20.42
2023-01-23T16:59:56.316Z,16.50
2023-01-23T17:02:30.274Z,15.23
2023-01-23T17:04:58.542Z,22.33
2023-01-23T17:07:28.114Z,16.95
2023-01-23T17:09:56.329Z,16.37
2023-01-23T17:12:29.287Z,15.23
2023-01-23T17:14:58.153Z,21.87
2023-01-23T17:17:30.282Z,16.35
2023-01-23T17:20:01.173Z,16.17
2023-01-23T17:22:35.061Z,16.02
2023-01-23T17:25:03.941Z,14.98
2023-01-23T17:27:38.953Z,14.48
2023-01-23T17:30:16.087Z,17.12
2023-01-23T17:32:47.256Z,16.37
2023-01-23T17:35:21.645Z,20.70
2023-01-23T17:37:51.598Z,14.65
2023-01-23T17:40:20.960Z,16.62
2023-01-23T17:42:49.185Z,16.30
2023-01-23T17:45:19.499Z,15.77
2023-01-23T17:47:50.220Z,17.12
2023-01-23T17:50:20.276Z,17.12
2023-01-23T17:52:51.394Z,16.33
2023-01-23T17:55:21.570Z,16.67
2023-01-23T17:57:50.113Z,13.93
2023-01-23T18:00:20.755Z,18.02
2023-01-23T18:02:58.239Z,15.27
2023-01-23T18:05:27.240Z,21.60
2023-01-23T18:07:56.983Z,14.82
2023-01-23T18:10:29.019Z,12.25
2023-01-23T18:13:09.703Z,13.98
2023-01-23T18:15:43.572Z,12.90
2023-01-23T18:18:23.957Z,12.50
2023-01-23T18:20:54.989Z,14.80
2023-01-23T18:23:27.098Z,15.55
2023-01-23T18:26:04.919Z,14.40
2023-01-23T18:28:42.850Z,20.83
2023-01-23T18:31:15.195Z,16.25
2023-01-23T18:34:11.862Z,17.25
2023-01-23T18:36:58.029Z,14.82
2023-01-23T18:39:43.953Z,15.40
2023-01-23T18:42:17.357Z,17.75
2023-01-23T18:44:53.904Z,16.05
2023-01-23T18:47:22.179Z,19.35
2023-01-23T18:49:52.421Z,18.37
2023-01-23T18:52:25.027Z,20.37
2023-01-23T18:55:03.391Z,19.77
2023-01-23T18:57:51.034Z,16.83
2023-01-23T19:00:24.819Z,16.08
2023-01-23T19:02:56.971Z,14.38
2023-01-23T19:05:30.102Z,15.50
2023-01-23T19:07:59.835Z,16.45
2023-01-23T19:10:46.720Z,17.83
2023-01-23T19:13:20.824Z,15.80
2023-01-23T19:15:58.965Z,17.15
2023-01-23T19:18:44.017Z,12.68
2023-01-23T19:21:23.409Z,13.85
2023-01-23T19:23:59.897Z,16.77
2023-01-23T19:26:32.293Z,13.57
2023-01-23T19:29:15.485Z,14.75
2023-01-23T19:32:03.415Z,15.65
2023-01-23T19:34:32.520Z,13.48
2023-01-23T19:37:01.167Z,15.50
2023-01-23T19:39:29.584Z,13.73
2023-01-23T19:41:59.912Z,17.65
2023-01-23T19:44:29.966Z,16.37
2023-01-23T19:46:58.075Z,15.63
2023-01-23T19:49:26.417Z,13.32
2023-01-23T19:51:54.701Z,13.73
2023-01-23T19:54:24.343Z,14.87
2023-01-23T19:56:52.910Z,13.40
2023-01-23T19:59:23.838Z,16.33
2023-01-23T20:01:53.843Z,13.23
2023-01-23T20:04:24.081Z,15.40
2023-01-23T20:06:52.830Z,15.40
2023-01-23T20:09:21.865Z,15.57
2023-01-23T20:11:52.180Z,14.10
2023-01-23T20:14:22.199Z,16.80
2023-01-23T20:16:51.911Z,15.20
2023-01-23T20:19:20.062Z,15.05
2023-01-23T20:21:48.740Z,14.63
2023-01-23T20:24:18.014Z,13.40
2023-01-23T20:26:47.135Z,17.60
2023-01-23T20:29:15.525Z,15.85
2023-01-23T20:31:43.861Z,12.52
2023-01-23T20:34:13.604Z,15.40
2023-01-23T20:36:41.885Z,16.23
2023-01-23T20:39:12.327Z,13.77
2023-01-23T20:41:40.565Z,14.55
2023-01-23T20:44:08.540Z,13.00
2023-01-23T20:46:36.821Z,17.08
2023-01-23T20:49:05.115Z,15.75
2023-01-23T20:51:34.824Z,15.90
2023-01-23T20:54:02.397Z,14.57
2023-01-23T20:56:30.675Z,14.57
2023-01-23T20:59:16.273Z,14.82
2023-01-23T21:02:11.663Z,14.35
2023-01-23T21:04:40.462Z,14.87
2023-01-23T21:07:10.208Z,13.82
2023-01-23T21:09:38.300Z,14.07
2023-01-23T21:12:07.152Z,11.93
2023-01-23T21:14:35.956Z,14.82
2023-01-23T21:17:05.374Z,13.20
2023-01-23T21:19:33.891Z,19.90
2023-01-23T21:22:02.462Z,14.32
2023-01-23T21:24:34.360Z,14.87
2023-01-23T21:27:03.486Z,18.27
2023-01-23T21:29:32.338Z,15.07
2023-01-23T21:32:01.205Z,12.75
2023-01-23T21:34:29.771Z,12.75
2023-01-23T21:36:58.159Z,15.45
2023-01-23T21:39:26.357Z,10.80
2023-01-23T21:41:55.936Z,18.25
2023-01-23T21:44:24.133Z,13.73
2023-01-23T21:46:52.118Z,11.77
2023-01-23T21:49:20.567Z,11.35
2023-01-23T21:51:48.634Z,12.13
2023-01-23T21:54:17.279Z,15.38
2023-01-23T21:56:45.607Z,15.98
2023-01-23T21:59:15.080Z,11.38
2023-01-23T22:01:42.872Z,11.75
2023-01-23T22:04:12.813Z,13.93
2023-01-23T22:06:43.083Z,11.43
2023-01-23T22:09:14.811Z,12.48
2023-01-23T22:11:42.975Z,13.95
2023-01-23T22:14:11.519Z,10.77
2023-01-23T22:16:48.369Z,10.63
2023-01-23T22:19:19.792Z,15.43
2023-01-23T22:21:48.311Z,13.88
2023-01-23T22:24:16.528Z,12.48
2023-01-23T22:26:44.969Z,13.55
2023-01-23T22:29:13.891Z,16.08
2023-01-23T22:31:43.362Z,11.30
2023-01-23T22:34:14.245Z,16.73
2023-01-23T22:36:42.276Z,11.60
2023-01-23T22:39:13.238Z,10.52
2023-01-23T22:41:41.509Z,12.77
2023-01-23T22:44:09.604Z,12.93
2023-01-23T22:46:37.652Z,14.13
2023-01-23T22:49:07.518Z,10.95
2023-01-23T22:51:35.566Z,14.20
2023-01-23T22:54:05.996Z,14.30
2023-01-23T22:56:34.390Z,14.75
2023-01-23T22:59:03.193Z,14.20
2023-01-23T23:01:31.472Z,10.63
2023-01-23T23:04:21.128Z,11.35
2023-01-23T23:06:49.130Z,15.30
2023-01-23T23:09:17.469Z,11.43
2023-01-23T23:11:47.422Z,10.73
2023-01-23T23:14:15.354Z,13.93
2023-01-23T23:16:43.607Z,13.75
2023-01-23T23:19:12.011Z,11.80
2023-01-23T23:21:42.755Z,10.27
2023-01-23T23:24:14.191Z,12.32
2023-01-23T23:26:42.602Z,11.63
2023-01-23T23:29:11.017Z,12.05
2023-01-23T23:31:39.279Z,15.20
2023-01-23T23:34:07.373Z,18.15
2023-01-23T23:36:36.221Z,10.93
2023-01-23T23:39:05.766Z,11.63
2023-01-23T23:41:33.862Z,11.90
2023-01-23T23:44:02.301Z,10.57
2023-01-23T23:46:30.240Z,12.18
2023-01-23T23:48:58.431Z,17.85
2023-01-23T23:51:27.365Z,11.10
2023-01-23T23:53:55.701Z,9.50
2023-01-23T23:56:27.651Z,10.70
2023-01-23T23:58:56.959Z,16.17
